sensor_id;sensor_type;location;lat;lon;timestamp;temperature;humidity
65044;DHT22;51617;48.158;16.464;2023-08-08T00:00:47;16.10;96.30
65044;DHT22;51617;48.158;16.464;2023-08-08T00:03:12;16.10;96.40
65044;DHT22;51617;48.158;16.464;2023-08-08T00:05:38;16.10;96.20
65044;DHT22;51617;48.158;16.464;2023-08-08T00:08:03;16.10;96.20
65044;DHT22;51617;48.158;16.464;2023-08-08T00:10:29;16.10;96.10
65044;DHT22;51617;48.158;16.464;2023-08-08T00:12:55;16.10;96.10
65044;DHT22;51617;48.158;16.464;2023-08-08T00:15:20;16.20;96.00
65044;DHT22;51617;48.158;16.464;2023-08-08T00:17:46;16.20;96.10
65044;DHT22;51617;48.158;16.464;2023-08-08T00:20:12;16.10;96.00
65044;DHT22;51617;48.158;16.464;2023-08-08T00:22:37;16.10;96.10
65044;DHT22;51617;48.158;16.464;2023-08-08T00:25:03;16.10;96.00
65044;DHT22;51617;48.158;16.464;2023-08-08T00:27:29;16.10;96.10
65044;DHT22;51617;48.158;16.464;2023-08-08T00:29:54;16.10;96.20
65044;DHT22;51617;48.158;16.464;2023-08-08T00:32:20;16.10;96.00
65044;DHT22;51617;48.158;16.464;2023-08-08T00:34:45;16.10;96.00
65044;DHT22;51617;48.158;16.464;2023-08-08T00:37:11;16.10;96.10
65044;DHT22;51617;48.158;16.464;2023-08-08T00:39:36;16.10;95.90
65044;DHT22;51617;48.158;16.464;2023-08-08T00:42:02;16.10;95.90
65044;DHT22;51617;48.158;16.464;2023-08-08T00:44:28;16.20;95.80
65044;DHT22;51617;48.158;16.464;2023-08-08T00:46:53;16.10;95.80
65044;DHT22;51617;48.158;16.464;2023-08-08T00:49:19;16.10;95.80
65044;DHT22;51617;48.158;16.464;2023-08-08T00:51:45;16.20;95.80
65044;DHT22;51617;48.158;16.464;2023-08-08T00:54:10;16.20;95.90
65044;DHT22;51617;48.158;16.464;2023-08-08T00:56:36;16.10;96.00
65044;DHT22;51617;48.158;16.464;2023-08-08T00:59:02;16.10;96.00
65044;DHT22;51617;48.158;16.464;2023-08-08T01:01:28;16.10;96.00
65044;DHT22;51617;48.158;16.464;2023-08-08T01:03:53;16.10;96.10
65044;DHT22;51617;48.158;16.464;2023-08-08T01:06:21;16.10;96.00
65044;DHT22;51617;48.158;16.464;2023-08-08T01:11:29;16.10;96.10
65044;DHT22;51617;48.158;16.464;2023-08-08T01:13:56;16.10;96.00
65044;DHT22;51617;48.158;16.464;2023-08-08T01:16:21;16.10;96.00
65044;DHT22;51617;48.158;16.464;2023-08-08T01:18:48;16.10;95.90
65044;DHT22;51617;48.158;16.464;2023-08-08T01:21:14;16.10;95.80
65044;DHT22;51617;48.158;16.464;2023-08-08T01:23:42;16.10;95.80
65044;DHT22;51617;48.158;16.464;2023-08-08T01:26:10;16.10;95.90
65044;DHT22;51617;48.158;16.464;2023-08-08T01:28:36;16.10;95.90
65044;DHT22;51617;48.158;16.464;2023-08-08T01:31:01;16.10;95.90
65044;DHT22;51617;48.158;16.464;2023-08-08T01:33:27;16.10;95.80
65044;DHT22;51617;48.158;16.464;2023-08-08T01:35:54;16.10;96.00
65044;DHT22;51617;48.158;16.464;2023-08-08T01:38:26;16.10;96.10
65044;DHT22;51617;48.158;16.464;2023-08-08T01:40:54;16.10;96.00
65044;DHT22;51617;48.158;16.464;2023-08-08T01:43:20;16.00;96.10
65044;DHT22;51617;48.158;16.464;2023-08-08T01:45:46;16.10;96.20
65044;DHT22;51617;48.158;16.464;2023-08-08T01:48:11;16.10;96.20
65044;DHT22;51617;48.158;16.464;2023-08-08T01:50:37;16.00;96.30
65044;DHT22;51617;48.158;16.464;2023-08-08T01:53:03;16.00;96.30
65044;DHT22;51617;48.158;16.464;2023-08-08T01:55:29;16.10;96.30
65044;DHT22;51617;48.158;16.464;2023-08-08T01:57:55;16.00;96.40
65044;DHT22;51617;48.158;16.464;2023-08-08T02:00:20;16.00;96.50
65044;DHT22;51617;48.158;16.464;2023-08-08T02:02:46;16.00;96.40
65044;DHT22;51617;48.158;16.464;2023-08-08T02:05:11;16.00;96.50
65044;DHT22;51617;48.158;16.464;2023-08-08T02:07:37;16.00;96.40
65044;DHT22;51617;48.158;16.464;2023-08-08T02:10:02;16.00;96.40
65044;DHT22;51617;48.158;16.464;2023-08-08T02:12:28;16.00;96.50
65044;DHT22;51617;48.158;16.464;2023-08-08T02:14:56;16.10;96.40
65044;DHT22;51617;48.158;16.464;2023-08-08T02:17:21;16.00;96.30
65044;DHT22;51617;48.158;16.464;2023-08-08T02:19:47;16.00;96.30
65044;DHT22;51617;48.158;16.464;2023-08-08T02:22:12;16.10;96.20
65044;DHT22;51617;48.158;16.464;2023-08-08T02:24:38;16.10;96.10
65044;DHT22;51617;48.158;16.464;2023-08-08T02:27:03;16.10;96.10
65044;DHT22;51617;48.158;16.464;2023-08-08T02:29:29;16.10;96.00
65044;DHT22;51617;48.158;16.464;2023-08-08T02:31:55;16.10;96.00
65044;DHT22;51617;48.158;16.464;2023-08-08T02:34:20;16.10;95.90
65044;DHT22;51617;48.158;16.464;2023-08-08T02:36:46;16.10;95.90
65044;DHT22;51617;48.158;16.464;2023-08-08T02:39:11;16.10;95.80
65044;DHT22;51617;48.158;16.464;2023-08-08T02:41:37;16.10;95.80
65044;DHT22;51617;48.158;16.464;2023-08-08T02:44:02;16.10;95.70
65044;DHT22;51617;48.158;16.464;2023-08-08T02:46:28;16.10;95.90
65044;DHT22;51617;48.158;16.464;2023-08-08T02:48:53;16.00;95.90
65044;DHT22;51617;48.158;16.464;2023-08-08T02:51:19;16.00;96.10
65044;DHT22;51617;48.158;16.464;2023-08-08T02:53:44;16.00;96.10
65044;DHT22;51617;48.158;16.464;2023-08-08T02:56:10;15.90;96.20
65044;DHT22;51617;48.158;16.464;2023-08-08T02:58:35;15.90;96.30
65044;DHT22;51617;48.158;16.464;2023-08-08T03:01:01;15.90;96.30
65044;DHT22;51617;48.158;16.464;2023-08-08T03:03:27;15.90;96.30
65044;DHT22;51617;48.158;16.464;2023-08-08T03:05:52;15.90;96.40
65044;DHT22;51617;48.158;16.464;2023-08-08T03:08:18;15.90;96.40
65044;DHT22;51617;48.158;16.464;2023-08-08T03:10:43;15.80;96.50
65044;DHT22;51617;48.158;16.464;2023-08-08T03:13:09;15.80;96.40
65044;DHT22;51617;48.158;16.464;2023-08-08T03:15:34;15.80;96.50
65044;DHT22;51617;48.158;16.464;2023-08-08T03:18:01;15.80;96.60
65044;DHT22;51617;48.158;16.464;2023-08-08T03:20:27;15.80;96.50
65044;DHT22;51617;48.158;16.464;2023-08-08T03:22:52;15.80;96.60
65044;DHT22;51617;48.158;16.464;2023-08-08T03:25:18;15.80;96.60
65044;DHT22;51617;48.158;16.464;2023-08-08T03:27:43;15.80;96.70
65044;DHT22;51617;48.158;16.464;2023-08-08T03:30:09;15.70;96.70
65044;DHT22;51617;48.158;16.464;2023-08-08T03:32:34;15.70;96.70
65044;DHT22;51617;48.158;16.464;2023-08-08T03:35:00;15.70;96.80
65044;DHT22;51617;48.158;16.464;2023-08-08T03:37:25;15.60;96.90
65044;DHT22;51617;48.158;16.464;2023-08-08T03:39:51;15.70;96.90
65044;DHT22;51617;48.158;16.464;2023-08-08T03:42:16;15.70;96.90
65044;DHT22;51617;48.158;16.464;2023-08-08T03:44:42;15.70;96.90
65044;DHT22;51617;48.158;16.464;2023-08-08T03:47:08;15.70;96.90
65044;DHT22;51617;48.158;16.464;2023-08-08T03:49:33;15.70;96.90
65044;DHT22;51617;48.158;16.464;2023-08-08T03:51:58;15.70;96.90
65044;DHT22;51617;48.158;16.464;2023-08-08T03:54:24;15.70;96.80
65044;DHT22;51617;48.158;16.464;2023-08-08T03:56:49;15.70;96.80
65044;DHT22;51617;48.158;16.464;2023-08-08T03:59:15;15.70;96.70
65044;DHT22;51617;48.158;16.464;2023-08-08T04:01:40;15.80;96.70
65044;DHT22;51617;48.158;16.464;2023-08-08T04:04:06;15.80;96.70
65044;DHT22;51617;48.158;16.464;2023-08-08T04:06:31;15.90;96.60
65044;DHT22;51617;48.158;16.464;2023-08-08T04:08:57;15.90;96.90
65044;DHT22;51617;48.158;16.464;2023-08-08T04:11:22;15.80;96.70
65044;DHT22;51617;48.158;16.464;2023-08-08T04:13:48;15.90;96.60
65044;DHT22;51617;48.158;16.464;2023-08-08T04:16:14;15.90;96.50
65044;DHT22;51617;48.158;16.464;2023-08-08T04:18:39;16.00;96.40
65044;DHT22;51617;48.158;16.464;2023-08-08T04:21:05;16.00;96.40
65044;DHT22;51617;48.158;16.464;2023-08-08T04:23:31;16.20;96.60
65044;DHT22;51617;48.158;16.464;2023-08-08T04:25:56;16.20;96.20
65044;DHT22;51617;48.158;16.464;2023-08-08T04:28:22;16.30;96.20
65044;DHT22;51617;48.158;16.464;2023-08-08T04:30:48;16.30;96.20
65044;DHT22;51617;48.158;16.464;2023-08-08T04:33:13;16.40;96.00
65044;DHT22;51617;48.158;16.464;2023-08-08T04:35:39;16.30;96.00
65044;DHT22;51617;48.158;16.464;2023-08-08T04:38:04;16.30;96.10
65044;DHT22;51617;48.158;16.464;2023-08-08T04:40:29;16.30;95.90
65044;DHT22;51617;48.158;16.464;2023-08-08T04:42:55;16.40;96.00
65044;DHT22;51617;48.158;16.464;2023-08-08T04:45:20;16.40;95.90
65044;DHT22;51617;48.158;16.464;2023-08-08T04:47:46;16.50;95.80
65044;DHT22;51617;48.158;16.464;2023-08-08T04:50:12;16.50;95.70
65044;DHT22;51617;48.158;16.464;2023-08-08T04:52:37;16.50;95.60
65044;DHT22;51617;48.158;16.464;2023-08-08T04:55:03;16.60;95.50
65044;DHT22;51617;48.158;16.464;2023-08-08T04:57:29;16.60;95.50
65044;DHT22;51617;48.158;16.464;2023-08-08T04:59:54;16.70;95.30
65044;DHT22;51617;48.158;16.464;2023-08-08T05:02:20;16.70;95.40
65044;DHT22;51617;48.158;16.464;2023-08-08T05:04:45;16.70;95.40
65044;DHT22;51617;48.158;16.464;2023-08-08T05:07:11;16.80;95.10
65044;DHT22;51617;48.158;16.464;2023-08-08T05:09:36;16.80;95.20
65044;DHT22;51617;48.158;16.464;2023-08-08T05:12:02;16.90;94.80
65044;DHT22;51617;48.158;16.464;2023-08-08T05:14:27;16.90;94.90
65044;DHT22;51617;48.158;16.464;2023-08-08T05:16:53;17.00;94.80
65044;DHT22;51617;48.158;16.464;2023-08-08T05:19:18;17.10;94.80
65044;DHT22;51617;48.158;16.464;2023-08-08T05:21:44;17.20;94.70
65044;DHT22;51617;48.158;16.464;2023-08-08T05:24:09;17.20;94.70
65044;DHT22;51617;48.158;16.464;2023-08-08T05:26:35;17.30;94.50
65044;DHT22;51617;48.158;16.464;2023-08-08T05:29:00;17.30;94.40
65044;DHT22;51617;48.158;16.464;2023-08-08T05:31:26;17.50;94.30
65044;DHT22;51617;48.158;16.464;2023-08-08T05:33:51;17.60;94.50
65044;DHT22;51617;48.158;16.464;2023-08-08T05:36:17;17.80;94.20
65044;DHT22;51617;48.158;16.464;2023-08-08T05:38:42;17.90;94.20
65044;DHT22;51617;48.158;16.464;2023-08-08T05:41:08;18.00;93.80
65044;DHT22;51617;48.158;16.464;2023-08-08T05:43:33;18.10;93.40
65044;DHT22;51617;48.158;16.464;2023-08-08T05:45:59;18.20;93.50
65044;DHT22;51617;48.158;16.464;2023-08-08T05:48:25;18.20;93.10
65044;DHT22;51617;48.158;16.464;2023-08-08T05:50:50;18.20;92.80
65044;DHT22;51617;48.158;16.464;2023-08-08T05:53:16;18.30;92.80
65044;DHT22;51617;48.158;16.464;2023-08-08T05:55:41;18.30;92.50
65044;DHT22;51617;48.158;16.464;2023-08-08T05:58:08;18.30;92.70
65044;DHT22;51617;48.158;16.464;2023-08-08T06:00:33;18.40;92.60
65044;DHT22;51617;48.158;16.464;2023-08-08T06:03:00;18.40;92.30
65044;DHT22;51617;48.158;16.464;2023-08-08T06:05:26;18.50;92.20
65044;DHT22;51617;48.158;16.464;2023-08-08T06:07:51;18.50;92.10
65044;DHT22;51617;48.158;16.464;2023-08-08T06:10:17;18.50;92.10
65044;DHT22;51617;48.158;16.464;2023-08-08T06:12:42;18.50;92.00
65044;DHT22;51617;48.158;16.464;2023-08-08T06:15:08;18.60;92.10
65044;DHT22;51617;48.158;16.464;2023-08-08T06:17:33;18.70;92.20
65044;DHT22;51617;48.158;16.464;2023-08-08T06:19:59;18.80;91.80
65044;DHT22;51617;48.158;16.464;2023-08-08T06:22:24;18.90;91.80
65044;DHT22;51617;48.158;16.464;2023-08-08T06:24:52;18.90;91.90
65044;DHT22;51617;48.158;16.464;2023-08-08T06:27:17;18.90;91.50
65044;DHT22;51617;48.158;16.464;2023-08-08T06:29:43;19.00;91.20
65044;DHT22;51617;48.158;16.464;2023-08-08T06:32:08;19.00;90.80
65044;DHT22;51617;48.158;16.464;2023-08-08T06:34:34;18.90;91.20
65044;DHT22;51617;48.158;16.464;2023-08-08T06:36:59;19.00;91.60
65044;DHT22;51617;48.158;16.464;2023-08-08T06:39:25;19.10;91.20
65044;DHT22;51617;48.158;16.464;2023-08-08T06:41:51;19.30;91.20
65044;DHT22;51617;48.158;16.464;2023-08-08T06:44:16;19.40;90.90
65044;DHT22;51617;48.158;16.464;2023-08-08T06:46:42;19.50;90.60
65044;DHT22;51617;48.158;16.464;2023-08-08T06:49:07;19.50;90.40
65044;DHT22;51617;48.158;16.464;2023-08-08T06:51:34;19.40;90.40
65044;DHT22;51617;48.158;16.464;2023-08-08T06:53:59;19.30;90.60
65044;DHT22;51617;48.158;16.464;2023-08-08T06:56:25;19.40;90.30
65044;DHT22;51617;48.158;16.464;2023-08-08T06:58:52;19.40;90.80
65044;DHT22;51617;48.158;16.464;2023-08-08T07:01:17;19.40;90.00
65044;DHT22;51617;48.158;16.464;2023-08-08T07:03:43;19.50;90.10
65044;DHT22;51617;48.158;16.464;2023-08-08T07:06:09;19.60;90.30
65044;DHT22;51617;48.158;16.464;2023-08-08T07:08:35;19.70;90.50
65044;DHT22;51617;48.158;16.464;2023-08-08T07:11:00;19.80;90.30
65044;DHT22;51617;48.158;16.464;2023-08-08T07:13:26;19.90;89.50
65044;DHT22;51617;48.158;16.464;2023-08-08T07:15:51;20.00;88.80
65044;DHT22;51617;48.158;16.464;2023-08-08T07:18:17;20.00;89.00
65044;DHT22;51617;48.158;16.464;2023-08-08T07:20:43;19.90;88.70
65044;DHT22;51617;48.158;16.464;2023-08-08T07:23:09;20.00;88.70
65044;DHT22;51617;48.158;16.464;2023-08-08T07:25:34;20.10;88.10
65044;DHT22;51617;48.158;16.464;2023-08-08T07:28:00;20.20;89.50
65044;DHT22;51617;48.158;16.464;2023-08-08T07:30:26;20.30;89.60
65044;DHT22;51617;48.158;16.464;2023-08-08T07:32:51;20.40;88.20
65044;DHT22;51617;48.158;16.464;2023-08-08T07:35:17;20.50;87.40
65044;DHT22;51617;48.158;16.464;2023-08-08T07:37:43;20.60;87.80
65044;DHT22;51617;48.158;16.464;2023-08-08T07:40:17;20.60;87.10
65044;DHT22;51617;48.158;16.464;2023-08-08T07:42:44;20.80;87.50
65044;DHT22;51617;48.158;16.464;2023-08-08T07:45:09;20.70;86.00
65044;DHT22;51617;48.158;16.464;2023-08-08T07:47:35;20.70;86.90
65044;DHT22;51617;48.158;16.464;2023-08-08T07:50:00;20.70;87.20
65044;DHT22;51617;48.158;16.464;2023-08-08T07:52:26;20.80;85.80
65044;DHT22;51617;48.158;16.464;2023-08-08T07:54:51;20.80;86.00
65044;DHT22;51617;48.158;16.464;2023-08-08T07:57:18;20.90;86.70
65044;DHT22;51617;48.158;16.464;2023-08-08T07:59:43;20.80;85.80
65044;DHT22;51617;48.158;16.464;2023-08-08T08:02:09;20.70;86.50
65044;DHT22;51617;48.158;16.464;2023-08-08T08:04:34;20.80;86.00
65044;DHT22;51617;48.158;16.464;2023-08-08T08:07:00;20.80;86.70
65044;DHT22;51617;48.158;16.464;2023-08-08T08:09:26;20.80;84.60
65044;DHT22;51617;48.158;16.464;2023-08-08T08:11:51;20.90;85.70
65044;DHT22;51617;48.158;16.464;2023-08-08T08:14:17;20.80;84.40
65044;DHT22;51617;48.158;16.464;2023-08-08T08:16:44;20.90;85.00
65044;DHT22;51617;48.158;16.464;2023-08-08T08:19:10;20.90;85.00
65044;DHT22;51617;48.158;16.464;2023-08-08T08:21:35;21.10;85.70
65044;DHT22;51617;48.158;16.464;2023-08-08T08:24:01;21.40;85.80
65044;DHT22;51617;48.158;16.464;2023-08-08T08:26:27;21.40;83.30
65044;DHT22;51617;48.158;16.464;2023-08-08T08:28:53;21.20;84.10
65044;DHT22;51617;48.158;16.464;2023-08-08T08:31:18;21.00;84.70
65044;DHT22;51617;48.158;16.464;2023-08-08T08:33:44;21.00;83.50
65044;DHT22;51617;48.158;16.464;2023-08-08T08:36:09;20.90;84.50
65044;DHT22;51617;48.158;16.464;2023-08-08T08:38:35;21.00;86.10
65044;DHT22;51617;48.158;16.464;2023-08-08T08:41:00;21.00;84.80
65044;DHT22;51617;48.158;16.464;2023-08-08T08:43:27;21.10;85.40
65044;DHT22;51617;48.158;16.464;2023-08-08T08:45:53;21.10;84.30
65044;DHT22;51617;48.158;16.464;2023-08-08T08:48:19;21.10;84.70
65044;DHT22;51617;48.158;16.464;2023-08-08T08:50:47;21.20;85.20
65044;DHT22;51617;48.158;16.464;2023-08-08T08:53:13;21.10;84.10
65044;DHT22;51617;48.158;16.464;2023-08-08T08:55:39;21.10;85.10
65044;DHT22;51617;48.158;16.464;2023-08-08T08:58:05;21.20;85.90
65044;DHT22;51617;48.158;16.464;2023-08-08T09:00:31;21.00;83.70
65044;DHT22;51617;48.158;16.464;2023-08-08T09:02:56;20.90;84.20
65044;DHT22;51617;48.158;16.464;2023-08-08T09:05:22;20.80;84.70
65044;DHT22;51617;48.158;16.464;2023-08-08T09:07:49;20.60;82.90
65044;DHT22;51617;48.158;16.464;2023-08-08T09:10:17;20.60;83.80
65044;DHT22;51617;48.158;16.464;2023-08-08T09:12:43;20.60;84.10
65044;DHT22;51617;48.158;16.464;2023-08-08T09:15:09;20.60;84.00
65044;DHT22;51617;48.158;16.464;2023-08-08T09:17:35;20.60;83.90
65044;DHT22;51617;48.158;16.464;2023-08-08T09:20:01;20.60;83.70
65044;DHT22;51617;48.158;16.464;2023-08-08T09:22:26;20.60;84.00
65044;DHT22;51617;48.158;16.464;2023-08-08T09:24:54;20.60;84.50
65044;DHT22;51617;48.158;16.464;2023-08-08T09:27:20;20.60;84.10
65044;DHT22;51617;48.158;16.464;2023-08-08T09:29:46;20.60;84.90
65044;DHT22;51617;48.158;16.464;2023-08-08T09:32:11;20.60;84.70
65044;DHT22;51617;48.158;16.464;2023-08-08T09:34:40;20.60;85.40
65044;DHT22;51617;48.158;16.464;2023-08-08T09:37:06;20.60;85.40
65044;DHT22;51617;48.158;16.464;2023-08-08T09:39:31;20.80;87.50
65044;DHT22;51617;48.158;16.464;2023-08-08T09:41:57;20.90;84.60
65044;DHT22;51617;48.158;16.464;2023-08-08T09:44:23;21.00;84.10
65044;DHT22;51617;48.158;16.464;2023-08-08T09:46:49;21.20;84.40
65044;DHT22;51617;48.158;16.464;2023-08-08T09:49:15;21.40;83.40
65044;DHT22;51617;48.158;16.464;2023-08-08T09:51:40;21.50;83.30
65044;DHT22;51617;48.158;16.464;2023-08-08T09:54:06;21.60;82.20
65044;DHT22;51617;48.158;16.464;2023-08-08T09:56:33;21.60;81.60
65044;DHT22;51617;48.158;16.464;2023-08-08T09:58:59;21.60;80.40
65044;DHT22;51617;48.158;16.464;2023-08-08T10:01:25;21.60;80.90
65044;DHT22;51617;48.158;16.464;2023-08-08T10:03:51;21.80;80.90
65044;DHT22;51617;48.158;16.464;2023-08-08T10:06:17;21.80;79.20
65044;DHT22;51617;48.158;16.464;2023-08-08T10:08:42;21.90;80.00
65044;DHT22;51617;48.158;16.464;2023-08-08T10:11:08;22.00;79.30
65044;DHT22;51617;48.158;16.464;2023-08-08T10:13:35;22.00;79.70
65044;DHT22;51617;48.158;16.464;2023-08-08T10:16:04;22.10;78.10
65044;DHT22;51617;48.158;16.464;2023-08-08T10:18:32;22.30;79.50
65044;DHT22;51617;48.158;16.464;2023-08-08T10:20:57;22.40;77.50
65044;DHT22;51617;48.158;16.464;2023-08-08T10:23:23;22.40;75.00
65044;DHT22;51617;48.158;16.464;2023-08-08T10:25:50;22.30;76.40
65044;DHT22;51617;48.158;16.464;2023-08-08T10:28:18;22.10;74.60
65044;DHT22;51617;48.158;16.464;2023-08-08T10:36:08;22.20;76.00
65044;DHT22;51617;48.158;16.464;2023-08-08T10:41:09;22.30;78.00
65044;DHT22;51617;48.158;16.464;2023-08-08T10:43:35;22.50;78.10
65044;DHT22;51617;48.158;16.464;2023-08-08T10:46:01;22.50;76.60
65044;DHT22;51617;48.158;16.464;2023-08-08T10:48:27;22.50;77.20
65044;DHT22;51617;48.158;16.464;2023-08-08T10:50:59;22.70;76.40
65044;DHT22;51617;48.158;16.464;2023-08-08T10:53:25;22.60;74.10
65044;DHT22;51617;48.158;16.464;2023-08-08T10:55:58;22.60;73.30
65044;DHT22;51617;48.158;16.464;2023-08-08T10:58:34;22.60;72.10
65044;DHT22;51617;48.158;16.464;2023-08-08T11:01:00;22.60;73.10
65044;DHT22;51617;48.158;16.464;2023-08-08T11:03:26;22.60;74.50
65044;DHT22;51617;48.158;16.464;2023-08-08T11:05:52;22.70;73.10
65044;DHT22;51617;48.158;16.464;2023-08-08T11:08:18;22.60;73.90
65044;DHT22;51617;48.158;16.464;2023-08-08T11:10:44;22.80;75.10
65044;DHT22;51617;48.158;16.464;2023-08-08T11:13:09;22.90;72.10
65044;DHT22;51617;48.158;16.464;2023-08-08T11:15:35;23.00;71.20
65044;DHT22;51617;48.158;16.464;2023-08-08T11:18:01;23.10;71.10
65044;DHT22;51617;48.158;16.464;2023-08-08T11:20:31;23.10;71.30
65044;DHT22;51617;48.158;16.464;2023-08-08T11:22:58;23.00;69.80
65044;DHT22;51617;48.158;16.464;2023-08-08T11:25:27;23.10;71.60
65044;DHT22;51617;48.158;16.464;2023-08-08T11:27:53;23.20;70.60
65044;DHT22;51617;48.158;16.464;2023-08-08T11:30:19;23.30;71.80
65044;DHT22;51617;48.158;16.464;2023-08-08T11:32:46;23.50;71.10
65044;DHT22;51617;48.158;16.464;2023-08-08T11:35:12;23.50;68.80
65044;DHT22;51617;48.158;16.464;2023-08-08T11:37:37;23.50;68.00
65044;DHT22;51617;48.158;16.464;2023-08-08T11:40:03;23.20;68.40
65044;DHT22;51617;48.158;16.464;2023-08-08T11:42:30;23.20;68.80
65044;DHT22;51617;48.158;16.464;2023-08-08T11:44:57;23.20;67.80
65044;DHT22;51617;48.158;16.464;2023-08-08T11:47:25;23.10;67.40
65044;DHT22;51617;48.158;16.464;2023-08-08T11:49:51;23.20;67.30
65044;DHT22;51617;48.158;16.464;2023-08-08T11:52:18;23.20;67.20
65044;DHT22;51617;48.158;16.464;2023-08-08T11:54:43;23.20;67.20
65044;DHT22;51617;48.158;16.464;2023-08-08T11:57:09;23.20;68.10
65044;DHT22;51617;48.158;16.464;2023-08-08T11:59:35;23.40;67.90
65044;DHT22;51617;48.158;16.464;2023-08-08T12:02:01;23.50;65.40
65044;DHT22;51617;48.158;16.464;2023-08-08T12:04:26;23.50;65.80
65044;DHT22;51617;48.158;16.464;2023-08-08T12:07:00;23.30;65.40
65044;DHT22;51617;48.158;16.464;2023-08-08T12:09:28;23.30;67.00
65044;DHT22;51617;48.158;16.464;2023-08-08T12:11:54;23.70;67.90
65044;DHT22;51617;48.158;16.464;2023-08-08T12:14:19;23.80;64.70
65044;DHT22;51617;48.158;16.464;2023-08-08T12:16:45;23.70;65.70
65044;DHT22;51617;48.158;16.464;2023-08-08T12:19:10;23.90;63.50
65044;DHT22;51617;48.158;16.464;2023-08-08T12:21:36;24.00;63.20
65044;DHT22;51617;48.158;16.464;2023-08-08T12:24:02;24.20;64.00
65044;DHT22;51617;48.158;16.464;2023-08-08T12:26:27;24.10;63.10
65044;DHT22;51617;48.158;16.464;2023-08-08T12:28:53;24.20;63.50
65044;DHT22;51617;48.158;16.464;2023-08-08T12:31:20;24.20;63.40
65044;DHT22;51617;48.158;16.464;2023-08-08T12:33:45;24.20;63.90
65044;DHT22;51617;48.158;16.464;2023-08-08T12:36:11;24.30;61.50
65044;DHT22;51617;48.158;16.464;2023-08-08T12:38:36;24.10;61.50
65044;DHT22;51617;48.158;16.464;2023-08-08T12:41:02;24.10;62.10
65044;DHT22;51617;48.158;16.464;2023-08-08T12:43:27;24.10;62.40
65044;DHT22;51617;48.158;16.464;2023-08-08T12:45:53;24.30;61.00
65044;DHT22;51617;48.158;16.464;2023-08-08T12:48:18;24.40;61.50
65044;DHT22;51617;48.158;16.464;2023-08-08T12:50:44;24.50;60.10
65044;DHT22;51617;48.158;16.464;2023-08-08T12:53:10;24.40;60.10
65044;DHT22;51617;48.158;16.464;2023-08-08T12:55:35;24.50;60.70
65044;DHT22;51617;48.158;16.464;2023-08-08T12:58:02;24.70;59.80
65044;DHT22;51617;48.158;16.464;2023-08-08T13:00:28;24.50;59.20
65044;DHT22;51617;48.158;16.464;2023-08-08T13:02:54;24.40;59.30
65044;DHT22;51617;48.158;16.464;2023-08-08T13:05:19;24.30;60.30
65044;DHT22;51617;48.158;16.464;2023-08-08T13:07:46;24.40;59.20
65044;DHT22;51617;48.158;16.464;2023-08-08T13:10:11;24.40;58.40
65044;DHT22;51617;48.158;16.464;2023-08-08T13:12:37;24.50;59.60
65044;DHT22;51617;48.158;16.464;2023-08-08T13:15:03;24.50;58.20
65044;DHT22;51617;48.158;16.464;2023-08-08T13:17:29;24.70;58.10
65044;DHT22;51617;48.158;16.464;2023-08-08T13:19:54;24.80;57.50
65044;DHT22;51617;48.158;16.464;2023-08-08T13:22:20;25.10;59.20
65044;DHT22;51617;48.158;16.464;2023-08-08T13:24:45;25.40;58.60
65044;DHT22;51617;48.158;16.464;2023-08-08T13:27:11;25.30;57.80
65044;DHT22;51617;48.158;16.464;2023-08-08T13:29:36;25.30;57.70
65044;DHT22;51617;48.158;16.464;2023-08-08T13:32:02;25.20;58.10
65044;DHT22;51617;48.158;16.464;2023-08-08T13:34:27;25.20;57.60
65044;DHT22;51617;48.158;16.464;2023-08-08T13:36:53;25.20;57.70
65044;DHT22;51617;48.158;16.464;2023-08-08T13:39:18;25.20;56.90
65044;DHT22;51617;48.158;16.464;2023-08-08T13:41:44;25.00;57.50
65044;DHT22;51617;48.158;16.464;2023-08-08T13:44:09;25.20;58.00
65044;DHT22;51617;48.158;16.464;2023-08-08T13:46:35;25.30;57.80
65044;DHT22;51617;48.158;16.464;2023-08-08T13:49:00;25.30;56.60
65044;DHT22;51617;48.158;16.464;2023-08-08T13:51:26;25.20;57.20
65044;DHT22;51617;48.158;16.464;2023-08-08T13:53:51;25.30;57.30
65044;DHT22;51617;48.158;16.464;2023-08-08T13:56:17;25.50;57.10
65044;DHT22;51617;48.158;16.464;2023-08-08T13:58:43;25.80;57.90
65044;DHT22;51617;48.158;16.464;2023-08-08T14:01:08;26.00;54.90
65044;DHT22;51617;48.158;16.464;2023-08-08T14:03:34;26.20;54.80
65044;DHT22;51617;48.158;16.464;2023-08-08T14:05:59;26.20;55.90
65044;DHT22;51617;48.158;16.464;2023-08-08T14:08:25;26.40;56.50
65044;DHT22;51617;48.158;16.464;2023-08-08T14:10:51;26.60;56.00
65044;DHT22;51617;48.158;16.464;2023-08-08T14:13:16;26.60;53.00
65044;DHT22;51617;48.158;16.464;2023-08-08T14:15:44;26.50;55.20
65044;DHT22;51617;48.158;16.464;2023-08-08T14:18:09;26.50;60.30
65044;DHT22;51617;48.158;16.464;2023-08-08T14:20:36;26.70;61.10
65044;DHT22;51617;48.158;16.464;2023-08-08T14:23:01;26.90;61.00
65044;DHT22;51617;48.158;16.464;2023-08-08T14:25:27;27.00;61.50
65044;DHT22;51617;48.158;16.464;2023-08-08T14:27:54;26.90;60.20
65044;DHT22;51617;48.158;16.464;2023-08-08T14:30:22;26.80;60.50
65044;DHT22;51617;48.158;16.464;2023-08-08T14:32:47;26.80;60.90
65044;DHT22;51617;48.158;16.464;2023-08-08T14:35:13;27.10;61.30
65044;DHT22;51617;48.158;16.464;2023-08-08T14:37:38;27.30;60.60
65044;DHT22;51617;48.158;16.464;2023-08-08T14:40:04;27.40;61.60
65044;DHT22;51617;48.158;16.464;2023-08-08T14:42:31;27.50;61.70
65044;DHT22;51617;48.158;16.464;2023-08-08T14:44:56;27.50;60.00
65044;DHT22;51617;48.158;16.464;2023-08-08T14:47:22;27.50;60.30
65044;DHT22;51617;48.158;16.464;2023-08-08T14:49:47;27.50;60.10
65044;DHT22;51617;48.158;16.464;2023-08-08T14:52:13;27.40;60.00
65044;DHT22;51617;48.158;16.464;2023-08-08T14:54:39;27.30;60.30
65044;DHT22;51617;48.158;16.464;2023-08-08T14:57:04;27.40;60.20
65044;DHT22;51617;48.158;16.464;2023-08-08T14:59:30;27.30;59.50
65044;DHT22;51617;48.158;16.464;2023-08-08T15:01:56;27.10;59.00
65044;DHT22;51617;48.158;16.464;2023-08-08T15:04:21;26.90;59.80
65044;DHT22;51617;48.158;16.464;2023-08-08T15:06:47;26.60;59.50
65044;DHT22;51617;48.158;16.464;2023-08-08T15:09:12;26.40;59.70
65044;DHT22;51617;48.158;16.464;2023-08-08T15:11:38;26.20;61.30
65044;DHT22;51617;48.158;16.464;2023-08-08T15:14:04;26.10;61.60
65044;DHT22;51617;48.158;16.464;2023-08-08T15:16:29;26.10;62.00